Terminal Aerodrome Forecast
Issued by NWS Wilmington, OH

Current Version | Previous Version | Graphics & Text | Print | Product List | Glossary On
Versions: 1 2 3 4 5 6 7 8 9 10 11 12 13 14 15 16 17 18 19 20 21 22
000
FTUS41 KILN 250500 RRA
TAFDAY
TAF
KDAY 250542Z 2506/2606 13009KT P6SM VCSH OVC080
      TEMPO 2506/2509 4SM -SHRA BR OVC040
     FM250900 18015G24KT 3SM -SHRA BR OVC025
     FM251400 23018G28KT P6SM OVC035
     FM251800 23016G26KT P6SM SCT035 BKN150
     FM260000 17008KT P6SM BKN200=

USA.gov is the U.S. government's official web portal to all federal, state and local government web resources and services.